Time;durP1;ratioP1;P1;durP2;ratioP2;P2;SDS_P1;SDS_P2;PMS_P1;PMS_P2;Temp;Humidity;BMP_temperature;BMP_pressure;BME280_temperature;BME280_humidity;BME280_pressure;Samples;Min_cycle;Max_cycle;Signal;HPM_P1;HPM_P2
2024/01/18 00:01:54;;;;;;;;;;;-5.70;100.00;;;;;;5024985;28;19933;-70
2024/01/18 00:04:20;;;;;;;;;;;-5.70;100.00;;;;;;5026156;28;19947;-70
2024/01/18 00:06:47;;;;;;;;;;;-5.70;100.00;;;;;;5025758;28;20634;-69
2024/01/18 00:09:14;;;;;;;;;;;-5.70;100.00;;;;;;5024264;28;20003;-70
2024/01/18 00:11:41;;;;;;;;;;;-5.70;100.00;;;;;;5025658;28;19999;-69
2024/01/18 00:14:08;;;;;;;;;;;-5.70;100.00;;;;;;5025364;28;19933;-69
2024/01/18 00:16:35;;;;;;;;;;;-5.70;100.00;;;;;;5033329;28;20583;-69
2024/01/18 00:19:02;;;;;;;;;;;-5.70;100.00;;;;;;5025294;28;19964;-69
2024/01/18 00:21:29;;;;;;;;;;;-5.70;100.00;;;;;;5025792;28;19975;-69
2024/01/18 00:23:55;;;;;;;;;;;-5.80;100.00;;;;;;5025579;28;19965;-70
2024/01/18 00:26:22;;;;;;;;;;;-5.70;100.00;;;;;;5026387;28;20708;-69
2024/01/18 00:28:49;;;;;;;;;;;-5.70;100.00;;;;;;5025489;28;19939;-69
2024/01/18 00:31:16;;;;;;;;;;;-5.70;100.00;;;;;;5025516;28;20444;-69
2024/01/18 00:33:43;;;;;;;;;;;-5.70;100.00;;;;;;5028163;28;19933;-69
2024/01/18 00:36:10;;;;;;;;;;;-5.70;100.00;;;;;;5025281;28;19929;-70
2024/01/18 00:38:37;;;;;;;;;;;-5.70;100.00;;;;;;5025462;28;19933;-69
2024/01/18 00:41:04;;;;;;;;;;;-5.70;100.00;;;;;;5028273;28;19933;-70
2024/01/18 00:43:31;;;;;;;;;;;-5.70;100.00;;;;;;5023802;28;20600;-70
2024/01/18 00:46:01;;;;;;;;;;;-5.70;100.00;;;;;;5024880;28;19987;-69
2024/01/18 00:48:28;;;;;;;;;;;-5.70;100.00;;;;;;5024943;28;19940;-69
2024/01/18 00:50:55;;;;;;;;;;;-5.70;100.00;;;;;;5010200;28;19932;-69
2024/01/18 00:53:22;;;;;;;;;;;-5.60;100.00;;;;;;5025412;28;20022;-69
2024/01/18 00:55:52;;;;;;;;;;;-5.60;100.00;;;;;;5017436;28;19929;-70
2024/01/18 00:58:19;;;;;;;;;;;-5.60;100.00;;;;;;5023282;28;19933;-69
2024/01/18 01:00:47;;;;;;;;;;;-5.60;100.00;;;;;;5038884;28;19940;-70
2024/01/18 01:03:14;;;;;;;;;;;-5.60;100.00;;;;;;5018304;28;19936;-69
2024/01/18 01:05:41;;;;;;;;;;;-5.60;100.00;;;;;;5022903;28;20397;-70
2024/01/18 01:08:07;;;;;;;;;;;-5.60;100.00;;;;;;5023697;28;19940;-70
2024/01/18 01:10:34;;;;;;;;;;;-5.60;100.00;;;;;;5024945;28;19937;-70
2024/01/18 01:13:01;;;;;;;;;;;-5.60;100.00;;;;;;5024710;28;19929;-70
2024/01/18 01:15:28;;;;;;;;;;;-5.50;100.00;;;;;;5024528;28;19933;-70
2024/01/18 01:17:55;;;;;;;;;;;-5.60;100.00;;;;;;5023894;28;19929;-69
2024/01/18 01:20:22;;;;;;;;;;;-5.60;100.00;;;;;;5013085;28;19929;-69
2024/01/18 01:22:48;;;;;;;;;;;-5.60;100.00;;;;;;5023412;28;20369;-69
2024/01/18 01:25:15;;;;;;;;;;;-5.60;100.00;;;;;;5023159;28;19925;-69
2024/01/18 01:27:42;;;;;;;;;;;-5.70;100.00;;;;;;5022586;28;20310;-70
2024/01/18 01:30:10;;;;;;;;;;;-5.70;100.00;;;;;;5022738;28;19964;-69
2024/01/18 01:32:37;;;;;;;;;;;-5.70;100.00;;;;;;5025357;28;19945;-70
2024/01/18 01:35:05;;;;;;;;;;;-5.70;100.00;;;;;;5023126;28;19929;-70
2024/01/18 01:37:32;;;;;;;;;;;-5.70;100.00;;;;;;5023686;28;20457;-70
2024/01/18 01:39:59;;;;;;;;;;;-5.70;100.00;;;;;;5024162;28;19936;-70
2024/01/18 01:42:26;;;;;;;;;;;-5.70;100.00;;;;;;5022178;28;19929;-70
2024/01/18 01:44:54;;;;;;;;;;;-5.60;100.00;;;;;;5022667;28;20571;-68
2024/01/18 01:47:21;;;;;;;;;;;-5.60;100.00;;;;;;5022270;28;19968;-68
2024/01/18 01:49:48;;;;;;;;;;;-5.50;100.00;;;;;;5022951;28;19929;-68
2024/01/18 01:52:15;;;;;;;;;;;-5.50;100.00;;;;;;5022194;28;21537;-68
2024/01/18 01:54:43;;;;;;;;;;;-5.50;100.00;;;;;;5023403;28;19933;-68
2024/01/18 01:57:10;;;;;;;;;;;-5.50;100.00;;;;;;5023933;28;20392;-68
2024/01/18 01:59:37;;;;;;;;;;;-5.50;100.00;;;;;;5023971;28;20408;-69
2024/01/18 02:02:05;;;;;;;;;;;-5.40;100.00;;;;;;5023370;28;19929;-68
2024/01/18 02:04:31;;;;;;;;;;;-5.40;100.00;;;;;;5023852;28;20244;-69
2024/01/18 02:06:59;;;;;;;;;;;-5.40;100.00;;;;;;5023621;28;19925;-68
2024/01/18 02:09:26;;;;;;;;;;;-5.40;100.00;;;;;;5021728;28;19925;-68
2024/01/18 02:11:53;;;;;;;;;;;-5.40;100.00;;;;;;5023731;28;19925;-68
2024/01/18 02:14:20;;;;;;;;;;;-5.40;100.00;;;;;;5024413;28;19961;-68
2024/01/18 02:16:46;;;;;;;;;;;-5.40;100.00;;;;;;5022816;28;19968;-68
2024/01/18 02:19:13;;;;;;;;;;;-5.50;100.00;;;;;;5026577;28;19932;-68
2024/01/18 02:21:40;;;;;;;;;;;-5.50;100.00;;;;;;5028080;28;19925;-68
2024/01/18 02:24:07;;;;;;;;;;;-5.50;100.00;;;;;;5026103;28;19933;-68
2024/01/18 02:26:34;;;;;;;;;;;-5.60;100.00;;;;;;5027741;28;20024;-68
2024/01/18 02:29:01;;;;;;;;;;;-5.60;100.00;;;;;;5027991;28;20013;-68
2024/01/18 02:31:28;;;;;;;;;;;-5.60;100.00;;;;;;5016708;28;20399;-68
2024/01/18 02:33:54;;;;;;;;;;;-5.60;100.00;;;;;;5028075;28;19929;-68
2024/01/18 02:36:21;;;;;;;;;;;-5.60;100.00;;;;;;5027582;28;19932;-68
2024/01/18 02:38:48;;;;;;;;;;;-5.70;100.00;;;;;;5027672;28;19983;-68
2024/01/18 02:41:15;;;;;;;;;;;-5.70;100.00;;;;;;5027290;28;19925;-68
2024/01/18 02:43:42;;;;;;;;;;;-5.70;100.00;;;;;;5028805;28;19936;-69
2024/01/18 02:46:09;;;;;;;;;;;-5.70;100.00;;;;;;5022357;28;20014;-68
2024/01/18 02:48:35;;;;;;;;;;;-5.60;100.00;;;;;;5016438;28;19956;-68
2024/01/18 02:51:03;;;;;;;;;;;-5.60;100.00;;;;;;5027083;28;19926;-68
2024/01/18 02:53:30;;;;;;;;;;;-5.60;100.00;;;;;;5027802;28;20421;-68
2024/01/18 02:55:57;;;;;;;;;;;-5.60;100.00;;;;;;5027274;28;19937;-68
2024/01/18 02:58:23;;;;;;;;;;;-5.60;100.00;;;;;;5020431;28;20629;-68
2024/01/18 03:00:50;;;;;;;;;;;-5.60;100.00;;;;;;5039452;28;20441;-69
2024/01/18 03:03:19;;;;;;;;;;;-5.50;100.00;;;;;;5027218;28;20550;-68
2024/01/18 03:05:46;;;;;;;;;;;-5.60;100.00;;;;;;5027264;28;19936;-68
2024/01/18 03:08:12;;;;;;;;;;;-5.50;100.00;;;;;;5026121;28;19941;-69
2024/01/18 03:10:39;;;;;;;;;;;-5.50;100.00;;;;;;5027637;28;19935;-68
2024/01/18 03:13:07;;;;;;;;;;;-5.50;100.00;;;;;;5027349;28;19929;-68
2024/01/18 03:15:34;;;;;;;;;;;-5.50;100.00;;;;;;5026908;28;19955;-69
2024/01/18 03:18:00;;;;;;;;;;;-5.50;100.00;;;;;;5027228;28;20124;-68
2024/01/18 03:20:27;;;;;;;;;;;-5.50;100.00;;;;;;5026448;28;20007;-69
2024/01/18 03:22:54;;;;;;;;;;;-5.50;100.00;;;;;;5026876;28;19929;-68
2024/01/18 03:25:21;;;;;;;;;;;-5.50;100.00;;;;;;5027346;28;19937;-68
2024/01/18 03:27:48;;;;;;;;;;;-5.50;100.00;;;;;;5028156;28;19975;-68
2024/01/18 03:30:15;;;;;;;;;;;-5.50;100.00;;;;;;5025363;28;19929;-69
2024/01/18 03:32:41;;;;;;;;;;;-5.60;100.00;;;;;;5025778;28;20656;-69
2024/01/18 03:35:08;;;;;;;;;;;-5.60;100.00;;;;;;5026046;28;19929;-69
2024/01/18 03:37:35;;;;;;;;;;;-5.60;100.00;;;;;;5026650;28;19956;-69
2024/01/18 03:40:02;;;;;;;;;;;-5.60;100.00;;;;;;5026731;28;19929;-69
2024/01/18 03:42:29;;;;;;;;;;;-5.60;100.00;;;;;;5026486;28;20042;-69
2024/01/18 03:44:56;;;;;;;;;;;-5.60;100.00;;;;;;5026452;28;19929;-69
2024/01/18 03:47:23;;;;;;;;;;;-5.60;100.00;;;;;;5026216;28;20020;-69
2024/01/18 03:49:49;;;;;;;;;;;-5.60;100.00;;;;;;5026166;28;19929;-70
2024/01/18 03:52:16;;;;;;;;;;;-5.60;100.00;;;;;;5026183;28;19929;-70
2024/01/18 03:54:43;;;;;;;;;;;-5.60;100.00;;;;;;5026783;28;19929;-69
2024/01/18 03:57:10;;;;;;;;;;;-5.60;100.00;;;;;;5026184;28;20531;-69
2024/01/18 03:59:37;;;;;;;;;;;-5.70;100.00;;;;;;5025801;28;20374;-69
2024/01/18 04:02:03;;;;;;;;;;;-5.70;100.00;;;;;;5024118;28;20038;-69
2024/01/18 04:04:30;;;;;;;;;;;-5.80;100.00;;;;;;5025252;28;19933;-69
2024/01/18 04:06:58;;;;;;;;;;;-5.80;100.00;;;;;;5024106;28;19929;-69
2024/01/18 04:09:25;;;;;;;;;;;-5.80;100.00;;;;;;5025041;28;19968;-69
2024/01/18 04:11:52;;;;;;;;;;;-5.90;100.00;;;;;;5030553;28;19929;-69
2024/01/18 04:14:18;;;;;;;;;;;-5.90;100.00;;;;;;5025104;28;20279;-69
2024/01/18 04:16:46;;;;;;;;;;;-5.80;100.00;;;;;;5010339;28;20380;-69
2024/01/18 04:19:12;;;;;;;;;;;-5.90;100.00;;;;;;5025514;28;20000;-69
2024/01/18 04:21:39;;;;;;;;;;;-5.90;100.00;;;;;;5024783;28;19929;-69
2024/01/18 04:24:06;;;;;;;;;;;-6.00;100.00;;;;;;5024421;28;19995;-69
2024/01/18 04:26:34;;;;;;;;;;;-6.00;100.00;;;;;;5024829;28;19929;-69
2024/01/18 04:29:01;;;;;;;;;;;-6.00;100.00;;;;;;5024730;28;19929;-69
2024/01/18 04:31:28;;;;;;;;;;;-6.10;100.00;;;;;;5023730;28;19940;-69
2024/01/18 04:33:55;;;;;;;;;;;-6.10;100.00;;;;;;5025168;28;19965;-69
2024/01/18 04:36:22;;;;;;;;;;;-6.20;100.00;;;;;;5011516;28;19929;-69
2024/01/18 04:38:49;;;;;;;;;;;-6.20;100.00;;;;;;5022695;28;20011;-69
2024/01/18 04:41:15;;;;;;;;;;;-6.20;100.00;;;;;;5022306;28;20018;-69
2024/01/18 04:43:43;;;;;;;;;;;-6.20;100.00;;;;;;5046473;28;19929;-70
2024/01/18 04:46:10;;;;;;;;;;;-6.10;100.00;;;;;;5023880;28;19929;-69
2024/01/18 04:48:37;;;;;;;;;;;-6.10;100.00;;;;;;5025276;28;20572;-70
2024/01/18 04:51:04;;;;;;;;;;;-5.90;100.00;;;;;;5026999;28;20719;-69
2024/01/18 04:53:30;;;;;;;;;;;-5.80;100.00;;;;;;5024883;28;19936;-69
2024/01/18 04:55:57;;;;;;;;;;;-5.60;100.00;;;;;;5023825;28;19944;-69
2024/01/18 04:58:24;;;;;;;;;;;-5.40;100.00;;;;;;5039493;28;19933;-69
2024/01/18 05:00:51;;;;;;;;;;;-5.20;100.00;;;;;;5024290;28;20052;-70
2024/01/18 05:03:19;;;;;;;;;;;-5.10;100.00;;;;;;5023785;28;19975;-69
2024/01/18 05:05:46;;;;;;;;;;;-5.00;100.00;;;;;;5027797;28;20048;-69
2024/01/18 05:08:12;;;;;;;;;;;-4.90;100.00;;;;;;5010940;28;19929;-69
2024/01/18 05:10:39;;;;;;;;;;;-4.80;100.00;;;;;;5016823;28;20002;-69
2024/01/18 05:13:06;;;;;;;;;;;-4.80;100.00;;;;;;5023636;28;19937;-69
2024/01/18 05:15:33;;;;;;;;;;;-4.70;100.00;;;;;;5022508;28;19929;-69
2024/01/18 05:18:00;;;;;;;;;;;-4.70;100.00;;;;;;5025533;28;20032;-69
2024/01/18 05:20:28;;;;;;;;;;;-4.60;100.00;;;;;;5022727;28;19929;-69
2024/01/18 05:22:54;;;;;;;;;;;-4.60;100.00;;;;;;5022877;28;20048;-69
2024/01/18 05:25:21;;;;;;;;;;;-4.50;100.00;;;;;;5024435;28;19973;-69
2024/01/18 05:27:49;;;;;;;;;;;-4.60;100.00;;;;;;5024309;28;19976;-69
2024/01/18 05:30:16;;;;;;;;;;;-4.60;100.00;;;;;;5024072;28;20519;-70
2024/01/18 05:32:42;;;;;;;;;;;-4.60;100.00;;;;;;5023375;28;19936;-69
2024/01/18 05:35:09;;;;;;;;;;;-4.70;100.00;;;;;;5010557;28;19937;-69
2024/01/18 05:37:36;;;;;;;;;;;-4.70;100.00;;;;;;5024615;28;20632;-69
2024/01/18 05:40:03;;;;;;;;;;;-4.80;100.00;;;;;;5027016;28;20377;-69
2024/01/18 05:42:30;;;;;;;;;;;-4.80;100.00;;;;;;5024196;28;19979;-69
2024/01/18 05:44:58;;;;;;;;;;;-4.80;100.00;;;;;;5030891;28;19968;-69
2024/01/18 05:47:25;;;;;;;;;;;-4.80;100.00;;;;;;5023097;28;19925;-69
2024/01/18 05:49:52;;;;;;;;;;;-4.90;100.00;;;;;;5021993;28;19940;-69
2024/01/18 05:52:19;;;;;;;;;;;-5.00;100.00;;;;;;5023562;28;20440;-70
2024/01/18 05:54:46;;;;;;;;;;;-5.00;100.00;;;;;;5022543;28;19984;-70
2024/01/18 05:57:12;;;;;;;;;;;-5.00;100.00;;;;;;5022640;28;19929;-71
2024/01/18 05:59:39;;;;;;;;;;;-5.10;100.00;;;;;;5023629;28;19940;-71
2024/01/18 06:02:06;;;;;;;;;;;-5.20;100.00;;;;;;5039093;28;19933;-77
2024/01/18 06:04:35;;;;;;;;;;;-5.30;100.00;;;;;;5022962;28;19935;-70
2024/01/18 06:07:03;;;;;;;;;;;-5.40;100.00;;;;;;5021962;28;19937;-72
2024/01/18 06:09:30;;;;;;;;;;;-5.50;100.00;;;;;;5023036;28;19932;-70
2024/01/18 06:11:57;;;;;;;;;;;-5.60;100.00;;;;;;5023787;28;20403;-69
2024/01/18 06:14:23;;;;;;;;;;;-5.60;100.00;;;;;;5023616;28;19975;-69
2024/01/18 06:16:50;;;;;;;;;;;-5.70;100.00;;;;;;5025058;28;20010;-69
2024/01/18 06:19:17;;;;;;;;;;;-5.80;100.00;;;;;;5023696;28;19929;-69
2024/01/18 06:21:44;;;;;;;;;;;-5.90;100.00;;;;;;5015208;28;19929;-69
2024/01/18 06:24:11;;;;;;;;;;;-5.90;100.00;;;;;;5022906;28;20534;-69
2024/01/18 06:26:38;;;;;;;;;;;-6.00;100.00;;;;;;5023409;28;19933;-69
2024/01/18 06:29:05;;;;;;;;;;;-6.10;100.00;;;;;;5023245;28;19983;-71
2024/01/18 06:31:31;;;;;;;;;;;-6.10;100.00;;;;;;5022409;28;19933;-69
2024/01/18 06:33:58;;;;;;;;;;;-6.10;100.00;;;;;;5025881;28;20018;-69
2024/01/18 06:36:25;;;;;;;;;;;-6.20;100.00;;;;;;5023925;28;19936;-69
2024/01/18 06:38:52;;;;;;;;;;;-6.30;100.00;;;;;;5021931;28;19933;-69
2024/01/18 06:41:22;;;;;;;;;;;-6.30;100.00;;;;;;5022741;28;19928;-69
2024/01/18 06:43:50;;;;;;;;;;;-6.30;100.00;;;;;;5024607;28;19929;-68
2024/01/18 06:46:17;;;;;;;;;;;-6.30;100.00;;;;;;5024230;28;19944;-68
2024/01/18 06:48:50;;;;;;;;;;;-6.30;100.00;;;;;;5039228;28;19929;-69
2024/01/18 06:51:17;;;;;;;;;;;-6.40;100.00;;;;;;5011674;28;19929;-69
2024/01/18 06:53:44;;;;;;;;;;;-6.50;100.00;;;;;;5028221;28;19935;-68
2024/01/18 06:56:12;;;;;;;;;;;-6.50;100.00;;;;;;5016195;28;20451;-69
2024/01/18 06:58:38;;;;;;;;;;;-6.50;100.00;;;;;;5024103;28;20517;-68
2024/01/18 07:01:06;;;;;;;;;;;-6.50;100.00;;;;;;5024654;28;19961;-68
2024/01/18 07:03:35;;;;;;;;;;;-6.60;100.00;;;;;;5026868;28;19937;-68
2024/01/18 07:06:02;;;;;;;;;;;-6.60;100.00;;;;;;5027498;28;20370;-68
2024/01/18 07:08:30;;;;;;;;;;;-6.70;100.00;;;;;;5027673;28;20586;-68
2024/01/18 07:10:57;;;;;;;;;;;-6.70;100.00;;;;;;5028034;28;19975;-68
2024/01/18 07:13:26;;;;;;;;;;;-6.80;100.00;;;;;;5027075;28;20013;-68
2024/01/18 07:15:53;;;;;;;;;;;-6.80;100.00;;;;;;5043083;28;20026;-68
2024/01/18 07:18:20;;;;;;;;;;;-6.80;100.00;;;;;;5028170;28;19929;-69
2024/01/18 07:20:47;;;;;;;;;;;-6.90;100.00;;;;;;5028095;28;19929;-68
2024/01/18 07:23:14;;;;;;;;;;;-6.90;100.00;;;;;;5028249;28;19931;-68
2024/01/18 07:25:41;;;;;;;;;;;-7.00;100.00;;;;;;5027157;28;20016;-68
2024/01/18 07:28:08;;;;;;;;;;;-7.00;100.00;;;;;;5027626;28;19933;-68
2024/01/18 07:30:35;;;;;;;;;;;-7.00;100.00;;;;;;5026951;28;19979;-68
2024/01/18 07:33:01;;;;;;;;;;;-7.00;100.00;;;;;;5030315;28;20357;-68
2024/01/18 07:35:28;;;;;;;;;;;-7.00;100.00;;;;;;5011966;28;19929;-65
2024/01/18 07:37:55;;;;;;;;;;;-7.00;100.00;;;;;;5019467;28;20621;-65
2024/01/18 07:40:22;;;;;;;;;;;-7.00;100.00;;;;;;5027585;28;19929;-65
2024/01/18 07:42:48;;;;;;;;;;;-6.90;100.00;;;;;;5012421;28;20090;-65
2024/01/18 07:45:15;;;;;;;;;;;-6.90;100.00;;;;;;5027429;28;20554;-65
2024/01/18 07:47:43;;;;;;;;;;;-6.80;100.00;;;;;;5026428;28;19933;-65
2024/01/18 07:50:10;;;;;;;;;;;-6.80;100.00;;;;;;5027642;28;19929;-65
2024/01/18 07:52:56;;;;;;;;;;;-6.80;100.00;;;;;;5019382;28;19929;-65
2024/01/18 07:55:24;;;;;;;;;;;-6.80;100.00;;;;;;5025892;28;19976;-65
2024/01/18 07:57:51;;;;;;;;;;;-6.70;100.00;;;;;;5026445;28;20448;-65
2024/01/18 08:00:18;;;;;;;;;;;-6.60;100.00;;;;;;5027032;28;19946;-65
2024/01/18 08:02:45;;;;;;;;;;;-6.60;100.00;;;;;;5027110;28;19937;-65
2024/01/18 08:05:12;;;;;;;;;;;-6.60;100.00;;;;;;5026026;28;19929;-65
2024/01/18 08:07:39;;;;;;;;;;;-6.50;100.00;;;;;;5026837;28;19936;-65
2024/01/18 08:10:08;;;;;;;;;;;-6.50;100.00;;;;;;5026473;28;19929;-65
2024/01/18 08:12:36;;;;;;;;;;;-6.40;100.00;;;;;;5026418;28;19964;-65
2024/01/18 08:15:03;;;;;;;;;;;-6.30;100.00;;;;;;5026904;28;19929;-65
2024/01/18 08:17:30;;;;;;;;;;;-6.30;100.00;;;;;;5019567;28;20031;-65
2024/01/18 08:19:57;;;;;;;;;;;-6.30;100.00;;;;;;5026416;28;19929;-65
2024/01/18 08:22:23;;;;;;;;;;;-6.30;100.00;;;;;;5025960;28;19941;-65
2024/01/18 08:24:50;;;;;;;;;;;-6.20;100.00;;;;;;5026484;28;19936;-65
2024/01/18 08:27:17;;;;;;;;;;;-6.20;100.00;;;;;;5016846;28;20121;-65
2024/01/18 08:29:44;;;;;;;;;;;-6.10;100.00;;;;;;5026631;28;20360;-65
2024/01/18 08:32:11;;;;;;;;;;;-6.00;100.00;;;;;;5027277;28;19929;-65
2024/01/18 08:34:37;;;;;;;;;;;-5.90;100.00;;;;;;5028713;28;20734;-65
2024/01/18 08:37:06;;;;;;;;;;;-5.90;100.00;;;;;;5025489;28;19951;-65
2024/01/18 08:39:33;;;;;;;;;;;-5.80;100.00;;;;;;5025013;28;20016;-65
2024/01/18 08:42:02;;;;;;;;;;;-5.80;100.00;;;;;;5026094;28;19936;-65
2024/01/18 08:44:29;;;;;;;;;;;-5.70;100.00;;;;;;5020105;28;19956;-65
2024/01/18 08:46:56;;;;;;;;;;;-5.60;100.00;;;;;;5020524;28;19943;-68
2024/01/18 08:49:26;;;;;;;;;;;-5.50;100.00;;;;;;5026128;28;20035;-68
2024/01/18 08:51:53;;;;;;;;;;;-5.40;100.00;;;;;;5024850;28;19928;-68
2024/01/18 08:54:23;;;;;;;;;;;-5.30;100.00;;;;;;5025821;28;19929;-69
2024/01/18 08:56:50;;;;;;;;;;;-5.20;100.00;;;;;;5024631;28;19964;-68
2024/01/18 08:59:17;;;;;;;;;;;-5.10;100.00;;;;;;5038589;28;19939;-68
2024/01/18 09:01:43;;;;;;;;;;;-4.90;100.00;;;;;;5025597;28;20385;-68
2024/01/18 09:04:10;;;;;;;;;;;-4.90;100.00;;;;;;5025576;28;19925;-69
2024/01/18 09:06:37;;;;;;;;;;;-4.70;100.00;;;;;;5022220;28;19933;-69
2024/01/18 09:09:09;;;;;;;;;;;-4.70;100.00;;;;;;5025687;28;20345;-68
2024/01/18 09:11:39;;;;;;;;;;;-4.60;100.00;;;;;;5025653;28;19932;-68
2024/01/18 09:14:06;;;;;;;;;;;-4.50;100.00;;;;;;5024289;28;19929;-68
2024/01/18 09:16:33;;;;;;;;;;;-4.40;100.00;;;;;;5025064;28;19929;-68
2024/01/18 09:19:00;;;;;;;;;;;-4.30;100.00;;;;;;5025322;28;19933;-68
2024/01/18 09:21:44;;;;;;;;;;;-4.20;100.00;;;;;;5023221;28;19987;-68
2024/01/18 09:24:12;;;;;;;;;;;-4.00;100.00;;;;;;5025430;28;19932;-69
2024/01/18 09:26:39;;;;;;;;;;;-3.90;100.00;;;;;;5029195;28;20048;-68
2024/01/18 09:29:06;;;;;;;;;;;-3.70;100.00;;;;;;5011503;28;19940;-68
2024/01/18 09:31:33;;;;;;;;;;;-3.60;100.00;;;;;;5025114;28;20289;-68
2024/01/18 09:34:08;;;;;;;;;;;-3.50;100.00;;;;;;5029299;28;19929;-68
2024/01/18 09:36:35;;;;;;;;;;;-3.30;100.00;;;;;;5037274;28;20335;-68
2024/01/18 09:39:03;;;;;;;;;;;-3.20;100.00;;;;;;5025081;28;19959;-68
2024/01/18 09:41:30;;;;;;;;;;;-3.10;100.00;;;;;;5025437;28;20027;-68
2024/01/18 09:44:01;;;;;;;;;;;-3.00;100.00;;;;;;5022980;28;19936;-68
2024/01/18 09:46:27;;;;;;;;;;;-2.90;100.00;;;;;;5023778;28;19929;-68
2024/01/18 09:48:55;;;;;;;;;;;-2.80;100.00;;;;;;5023643;28;19929;-68
2024/01/18 09:51:23;;;;;;;;;;;-2.60;100.00;;;;;;5030057;28;19933;-67
2024/01/18 09:53:54;;;;;;;;;;;-2.60;100.00;;;;;;5032001;28;20277;-67
2024/01/18 09:56:22;;;;;;;;;;;-2.50;100.00;;;;;;5024299;28;19939;-67
2024/01/18 09:58:49;;;;;;;;;;;-2.40;100.00;;;;;;5024547;28;20044;-67
2024/01/18 10:01:18;;;;;;;;;;;-2.30;100.00;;;;;;5024721;28;20026;-67
2024/01/18 10:03:45;;;;;;;;;;;-2.10;100.00;;;;;;5024171;28;20413;-67
2024/01/18 10:06:13;;;;;;;;;;;-1.90;100.00;;;;;;5024557;28;19929;-67
2024/01/18 10:08:40;;;;;;;;;;;-1.90;100.00;;;;;;5024660;28;19929;-67
2024/01/18 10:11:07;;;;;;;;;;;-1.80;100.00;;;;;;5024483;28;19968;-67
2024/01/18 10:13:53;;;;;;;;;;;-1.70;100.00;;;;;;5007517;28;19929;-67
2024/01/18 10:16:36;;;;;;;;;;;-1.40;100.00;;;;;;5024767;28;20302;-67
2024/01/18 10:19:03;;;;;;;;;;;-1.30;100.00;;;;;;4993230;28;20282;-67
2024/01/18 10:21:31;;;;;;;;;;;-1.00;100.00;;;;;;5023765;28;19936;-67
2024/01/18 10:23:58;;;;;;;;;;;-0.50;100.00;;;;;;5024758;28;19940;-67
2024/01/18 10:26:32;;;;;;;;;;;0.10;100.00;;;;;;5024718;28;20667;-67
2024/01/18 10:28:59;;;;;;;;;;;0.70;100.00;;;;;;5009711;28;20348;-67
2024/01/18 10:31:31;;;;;;;;;;;0.80;100.00;;;;;;5014161;28;19951;-67
2024/01/18 10:33:58;;;;;;;;;;;0.40;100.00;;;;;;5024223;28;19936;-67
2024/01/18 10:36:25;;;;;;;;;;;0.40;100.00;;;;;;5024084;28;19964;-67
2024/01/18 10:38:53;;;;;;;;;;;0.60;100.00;;;;;;5022600;28;20544;-68
2024/01/18 10:41:20;;;;;;;;;;;0.50;100.00;;;;;;5033463;28;19925;-67
2024/01/18 10:43:48;;;;;;;;;;;0.40;100.00;;;;;;5028366;28;19929;-67
2024/01/18 10:46:15;;;;;;;;;;;0.40;100.00;;;;;;5028066;28;19936;-67
2024/01/18 10:48:46;;;;;;;;;;;0.30;100.00;;;;;;5027862;28;20718;-67
2024/01/18 10:51:13;;;;;;;;;;;0.50;100.00;;;;;;5027486;28;20058;-67
2024/01/18 10:53:41;;;;;;;;;;;0.70;100.00;;;;;;5027663;28;20055;-67
2024/01/18 10:56:08;;;;;;;;;;;0.70;100.00;;;;;;5027032;28;19960;-67
2024/01/18 10:58:35;;;;;;;;;;;0.30;100.00;;;;;;5028122;28;19925;-67
2024/01/18 11:01:03;;;;;;;;;;;0.40;100.00;;;;;;5027912;28;19929;-68
2024/01/18 11:03:31;;;;;;;;;;;0.60;100.00;;;;;;5027990;28;19940;-68
2024/01/18 11:05:59;;;;;;;;;;;0.80;100.00;;;;;;5020459;28;19951;-67
2024/01/18 11:08:26;;;;;;;;;;;0.90;100.00;;;;;;5017349;28;19948;-67
2024/01/18 11:10:53;;;;;;;;;;;0.80;100.00;;;;;;5027355;28;20435;-68
2024/01/18 11:13:20;;;;;;;;;;;0.70;100.00;;;;;;5016289;28;20659;-68
2024/01/18 11:15:47;;;;;;;;;;;0.60;100.00;;;;;;5014934;28;20019;-68
2024/01/18 11:18:14;;;;;;;;;;;0.60;100.00;;;;;;5027172;28;20766;-68
2024/01/18 11:21:00;;;;;;;;;;;0.70;100.00;;;;;;5027668;28;19935;-68
2024/01/18 11:23:37;;;;;;;;;;;0.80;100.00;;;;;;5033412;28;19937;-69
2024/01/18 11:26:07;;;;;;;;;;;0.80;100.00;;;;;;5024920;28;19973;-69
2024/01/18 11:28:35;;;;;;;;;;;0.90;100.00;;;;;;5027055;28;20589;-69
2024/01/18 11:31:02;;;;;;;;;;;1.40;100.00;;;;;;5026837;28;19936;-69
2024/01/18 11:33:31;;;;;;;;;;;1.90;100.00;;;;;;5030611;28;19928;-68
2024/01/18 11:35:58;;;;;;;;;;;2.30;100.00;;;;;;5026023;28;20396;-69
2024/01/18 11:38:28;;;;;;;;;;;2.80;100.00;;;;;;5027249;28;20024;-69
2024/01/18 11:41:03;;;;;;;;;;;2.80;100.00;;;;;;5039852;28;20426;-68
2024/01/18 11:43:48;;;;;;;;;;;2.70;100.00;;;;;;5027030;28;20320;-68
2024/01/18 11:46:15;;;;;;;;;;;2.90;100.00;;;;;;5033569;28;19972;-69
2024/01/18 11:48:43;;;;;;;;;;;2.80;100.00;;;;;;5047312;28;20373;-69
2024/01/18 11:51:10;;;;;;;;;;;3.00;100.00;;;;;;5026469;28;19929;-69
2024/01/18 11:53:37;;;;;;;;;;;3.40;100.00;;;;;;5025279;28;20703;-69
2024/01/18 11:56:05;;;;;;;;;;;3.60;100.00;;;;;;5026930;28;19929;-69
2024/01/18 11:58:32;;;;;;;;;;;3.70;100.00;;;;;;5026733;28;19932;-69
2024/01/18 12:00:58;;;;;;;;;;;3.80;100.00;;;;;;5018829;28;20289;-68
2024/01/18 12:03:25;;;;;;;;;;;3.60;100.00;;;;;;5025532;28;20020;-68
2024/01/18 12:05:52;;;;;;;;;;;3.20;100.00;;;;;;5026125;28;19933;-68
2024/01/18 12:08:20;;;;;;;;;;;2.70;100.00;;;;;;5026842;28;19929;-68
2024/01/18 12:10:47;;;;;;;;;;;2.80;100.00;;;;;;5026580;28;19937;-68
2024/01/18 12:13:17;;;;;;;;;;;3.10;100.00;;;;;;5026247;28;19935;-69
2024/01/18 12:15:45;;;;;;;;;;;3.70;100.00;;;;;;5026163;28;20026;-68
2024/01/18 12:18:12;;;;;;;;;;;3.90;100.00;;;;;;5026052;28;19975;-68
2024/01/18 12:20:41;;;;;;;;;;;3.90;100.00;;;;;;5025476;28;20369;-69
2024/01/18 12:23:12;;;;;;;;;;;3.90;100.00;;;;;;5031241;28;19937;-69
2024/01/18 12:25:39;;;;;;;;;;;3.80;100.00;;;;;;5026070;28;19929;-68
2024/01/18 12:28:06;;;;;;;;;;;3.50;100.00;;;;;;5013101;28;20444;-68
2024/01/18 12:30:33;;;;;;;;;;;3.30;100.00;;;;;;5018397;28;19983;-68
2024/01/18 12:33:02;;;;;;;;;;;3.50;100.00;;;;;;5026312;28;19929;-69
2024/01/18 12:35:29;;;;;;;;;;;3.30;100.00;;;;;;5026010;28;20647;-69
2024/01/18 12:38:01;;;;;;;;;;;3.30;100.00;;;;;;5024726;28;20014;-69
2024/01/18 12:40:28;;;;;;;;;;;3.30;100.00;;;;;;5025812;28;19987;-69
2024/01/18 12:43:04;;;;;;;;;;;3.10;100.00;;;;;;5026111;28;19995;-69
2024/01/18 12:45:31;;;;;;;;;;;3.30;100.00;;;;;;5025782;28;19964;-69
2024/01/18 12:47:58;;;;;;;;;;;4.10;100.00;;;;;;5025916;28;19933;-69
2024/01/18 12:50:24;;;;;;;;;;;4.90;100.00;;;;;;5025066;28;19936;-69
2024/01/18 12:52:51;;;;;;;;;;;5.40;100.00;;;;;;5026142;28;19991;-69
2024/01/18 12:55:18;;;;;;;;;;;5.50;100.00;;;;;;5025086;28;20404;-69
2024/01/18 12:57:47;;;;;;;;;;;5.40;100.00;;;;;;5024374;28;21622;-69
2024/01/18 13:00:14;;;;;;;;;;;5.50;100.00;;;;;;5035162;28;20042;-66
2024/01/18 13:02:41;;;;;;;;;;;5.40;100.00;;;;;;5033795;28;19929;-66
2024/01/18 13:05:16;;;;;;;;;;;5.90;100.00;;;;;;5025348;28;19929;-65
2024/01/18 13:07:42;;;;;;;;;;;6.50;100.00;;;;;;5024883;28;20768;-65
2024/01/18 13:10:13;;;;;;;;;;;7.30;100.00;;;;;;5025041;28;19939;-66
2024/01/18 13:12:40;;;;;;;;;;;7.30;100.00;;;;;;5025577;28;20047;-66
2024/01/18 13:15:08;;;;;;;;;;;7.50;100.00;;;;;;5026017;28;19935;-66
2024/01/18 13:17:38;;;;;;;;;;;8.00;100.00;;;;;;5025122;28;20324;-66
2024/01/18 13:20:05;;;;;;;;;;;8.70;100.00;;;;;;5025423;28;19929;-66
2024/01/18 13:22:32;;;;;;;;;;;8.20;100.00;;;;;;5025743;28;19968;-66
2024/01/18 13:24:59;;;;;;;;;;;7.70;100.00;;;;;;5015114;28;19991;-66
2024/01/18 13:27:26;;;;;;;;;;;6.80;100.00;;;;;;5034351;28;20424;-66
2024/01/18 13:29:53;;;;;;;;;;;6.10;100.00;;;;;;5035741;28;19929;-69
2024/01/18 13:32:21;;;;;;;;;;;5.20;100.00;;;;;;5025077;28;19933;-66
2024/01/18 13:34:47;;;;;;;;;;;4.40;100.00;;;;;;5026678;28;19933;-66
2024/01/18 13:37:14;;;;;;;;;;;3.90;100.00;;;;;;5025307;28;19928;-66
2024/01/18 13:39:50;;;;;;;;;;;3.30;100.00;;;;;;5025289;28;20051;-66
2024/01/18 13:42:17;;;;;;;;;;;3.10;100.00;;;;;;5024407;28;20919;-66
2024/01/18 13:44:44;;;;;;;;;;;3.40;100.00;;;;;;5023698;28;19929;-66
2024/01/18 13:47:11;;;;;;;;;;;4.20;100.00;;;;;;5024991;28;20043;-65
2024/01/18 13:49:38;;;;;;;;;;;3.80;100.00;;;;;;5025299;28;19941;-66
2024/01/18 13:52:05;;;;;;;;;;;3.70;100.00;;;;;;5024817;28;20294;-66
2024/01/18 13:54:32;;;;;;;;;;;3.40;100.00;;;;;;5024586;28;19929;-65
2024/01/18 13:56:59;;;;;;;;;;;3.00;100.00;;;;;;5023309;28;19960;-66
2024/01/18 13:59:26;;;;;;;;;;;2.90;100.00;;;;;;5024629;28;20014;-66
2024/01/18 14:01:53;;;;;;;;;;;2.60;100.00;;;;;;5023676;28;19934;-66
2024/01/18 14:04:19;;;;;;;;;;;2.40;100.00;;;;;;5024711;28;19929;-65
2024/01/18 14:06:46;;;;;;;;;;;2.10;100.00;;;;;;5019861;28;19929;-66
2024/01/18 14:09:13;;;;;;;;;;;1.80;100.00;;;;;;5024729;28;20488;-65
2024/01/18 14:11:40;;;;;;;;;;;1.60;100.00;;;;;;5022874;28;19940;-65